Terminal Aerodrome Forecast
Issued by NWS

Home | Current Version | Previous Version | Text Only | Print | Product List | Glossary Off
Versions: 1 2 3 4 5 6 7 8 9 10 11 12 13 14 15 16 17

000
FTUS43 KFGF 231700
TAFBJI
TAF
KBJI 231723Z 2318/2418 30010KT P6SM OVC020
     FM240000 29006KT P6SM OVC025
     FM241200 28005KT P6SM -SHSN OVC020=

USA.gov is the U.S. government's official web portal to all federal, state and local government web resources and services.